createdAt,value
2022-10-01T00:02:09.680Z,4.97
2022-10-01T00:04:39.646Z,4.80
2022-10-01T00:07:10.887Z,5.03
2022-10-01T00:09:39.492Z,3.93
2022-10-01T00:12:09.046Z,4.87
2022-10-01T00:14:39.492Z,4.37
2022-10-01T00:17:07.618Z,4.80
2022-10-01T00:19:35.799Z,5.30
2022-10-01T00:22:04.082Z,4.50
2022-10-01T00:24:32.089Z,5.50
2022-10-01T00:27:00.534Z,5.60
2022-10-01T00:29:29.974Z,5.03
2022-10-01T00:31:58.289Z,4.83
2022-10-01T00:34:28.321Z,5.23
2022-10-01T00:36:56.339Z,5.20
2022-10-01T00:39:24.747Z,5.07
2022-10-01T00:41:52.902Z,5.20
2022-10-01T00:44:36.624Z,5.53
2022-10-01T00:47:13.881Z,5.10
2022-10-01T00:49:43.539Z,5.00
2022-10-01T00:52:17.391Z,4.83
2022-10-01T00:54:50.700Z,5.33
2022-10-01T00:57:23.017Z,5.00
2022-10-01T00:59:55.547Z,4.73
2022-10-01T01:02:23.871Z,5.00
2022-10-01T01:04:52.128Z,5.77
2022-10-01T01:07:21.237Z,4.60
2022-10-01T01:09:52.542Z,5.00
2022-10-01T01:12:39.084Z,4.30
2022-10-01T01:15:16.137Z,4.13
2022-10-01T01:17:52.887Z,4.83
2022-10-01T01:20:42.382Z,4.87
2022-10-01T01:23:35.741Z,4.47
2022-10-01T01:26:16.254Z,4.77
2022-10-01T01:28:48.965Z,4.77
2022-10-01T01:31:21.330Z,4.70
2022-10-01T01:33:52.500Z,4.43
2022-10-01T01:36:35.590Z,5.30
2022-10-01T01:39:06.445Z,4.90
2022-10-01T01:41:38.753Z,4.43
2022-10-01T01:44:13.168Z,5.10
2022-10-01T01:46:45.250Z,4.40
2022-10-01T01:49:17.580Z,4.40
2022-10-01T01:51:52.171Z,4.57
2022-10-01T01:54:21.259Z,4.97
2022-10-01T01:56:50.732Z,4.53
2022-10-01T01:59:20.585Z,4.27
2022-10-01T02:01:49.504Z,4.90
2022-10-01T02:04:22.710Z,4.67
2022-10-01T02:07:16.236Z,4.53
2022-10-01T02:09:53.239Z,5.10
2022-10-01T02:12:32.914Z,4.50
2022-10-01T02:15:10.070Z,4.73
2022-10-01T02:17:50.652Z,3.90
2022-10-01T02:20:25.839Z,4.90
2022-10-01T02:22:58.324Z,3.90
2022-10-01T02:25:30.980Z,4.00
2022-10-01T02:28:03.181Z,4.17
2022-10-01T02:30:35.583Z,4.10
2022-10-01T02:33:05.238Z,4.00
2022-10-01T02:35:35.898Z,3.70
2022-10-01T02:38:06.503Z,3.57
2022-10-01T02:40:39.149Z,3.67
2022-10-01T02:43:12.044Z,3.67
2022-10-01T02:45:44.057Z,3.90
2022-10-01T02:48:13.245Z,3.57
2022-10-01T02:50:49.469Z,4.60
2022-10-01T02:53:21.677Z,3.37
2022-10-01T02:55:51.933Z,3.83
2022-10-01T02:58:20.011Z,3.83
2022-10-01T03:00:49.541Z,3.33
2022-10-01T03:03:17.587Z,3.23
2022-10-01T03:05:45.639Z,3.10
2022-10-01T03:08:13.703Z,3.57
2022-10-01T03:10:46.511Z,3.37
2022-10-01T03:13:14.885Z,3.07
2022-10-01T03:15:42.892Z,3.03
2022-10-01T03:18:12.236Z,2.43
2022-10-01T03:20:40.260Z,3.30
2022-10-01T03:23:08.256Z,4.27
2022-10-01T03:25:36.442Z,2.97
2022-10-01T03:28:04.538Z,3.17
2022-10-01T03:30:33.904Z,3.20
2022-10-01T03:33:01.969Z,3.00
2022-10-01T03:35:32.252Z,2.67
2022-10-01T03:38:00.502Z,2.63
2022-10-01T03:40:28.845Z,2.87
2022-10-01T03:42:56.844Z,3.37
2022-10-01T03:45:24.885Z,2.60
2022-10-01T03:47:53.814Z,3.30
2022-10-01T03:50:22.091Z,3.40
2022-10-01T03:52:51.679Z,3.37
2022-10-01T03:55:20.265Z,3.50
2022-10-01T03:57:48.678Z,3.40
2022-10-01T04:00:18.368Z,3.47
2022-10-01T04:02:46.512Z,3.07
2022-10-01T04:05:15.134Z,2.90
2022-10-01T04:07:43.684Z,2.60
2022-10-01T04:10:13.563Z,2.73
2022-10-01T04:12:41.654Z,3.17
2022-10-01T04:15:10.533Z,3.10
2022-10-01T04:17:41.563Z,2.33
2022-10-01T04:20:12.034Z,2.97
2022-10-01T04:22:42.109Z,3.03
2022-10-01T04:25:12.979Z,2.47
2022-10-01T04:27:41.701Z,2.60
2022-10-01T04:30:11.177Z,2.73
2022-10-01T04:32:39.878Z,2.13
2022-10-01T04:35:11.249Z,2.17
2022-10-01T04:37:39.502Z,2.10
2022-10-01T04:40:09.649Z,2.40
2022-10-01T04:42:43.624Z,2.00
2022-10-01T04:45:13.559Z,2.80
2022-10-01T04:47:49.425Z,2.20
2022-10-01T04:50:18.190Z,2.03
2022-10-01T04:52:46.573Z,2.40
2022-10-01T04:55:15.839Z,2.17
2022-10-01T04:57:45.448Z,2.20
2022-10-01T05:00:16.517Z,2.20
2022-10-01T05:02:46.376Z,2.10
2022-10-01T05:05:14.634Z,2.53
2022-10-01T05:07:43.361Z,2.30
2022-10-01T05:10:14.670Z,2.00
2022-10-01T05:12:42.964Z,2.50
2022-10-01T05:15:13.105Z,1.80
2022-10-01T05:17:41.165Z,2.10
2022-10-01T05:20:18.995Z,2.10
2022-10-01T05:22:48.997Z,2.20
2022-10-01T05:25:17.615Z,2.20
2022-10-01T05:27:45.966Z,1.93
2022-10-01T05:30:20.113Z,2.03
2022-10-01T05:32:56.383Z,1.80
2022-10-01T05:35:24.439Z,2.13
2022-10-01T05:37:56.793Z,2.13
2022-10-01T05:40:27.372Z,2.03
2022-10-01T05:42:56.259Z,1.87
2022-10-01T05:45:26.176Z,2.43
2022-10-01T05:47:58.566Z,2.20
2022-10-01T05:50:27.230Z,2.47
2022-10-01T05:52:55.815Z,2.20
2022-10-01T05:55:24.927Z,2.40
2022-10-01T05:57:59.974Z,2.00
2022-10-01T06:00:30.842Z,2.10
2022-10-01T06:03:00.141Z,2.10
2022-10-01T06:05:29.357Z,2.23
2022-10-01T06:07:57.471Z,1.90
2022-10-01T06:10:28.157Z,1.70
2022-10-01T06:13:00.291Z,1.70
2022-10-01T06:15:29.895Z,1.87
2022-10-01T06:17:57.917Z,2.10
2022-10-01T06:20:25.969Z,2.47
2022-10-01T06:22:57.000Z,2.17
2022-10-01T06:25:25.602Z,1.80
2022-10-01T06:27:55.559Z,2.00
2022-10-01T06:30:23.989Z,2.00
2022-10-01T06:32:53.498Z,2.17
2022-10-01T06:35:21.509Z,2.17
2022-10-01T06:37:49.537Z,2.20
2022-10-01T06:40:18.782Z,1.90
2022-10-01T06:42:48.928Z,2.43
2022-10-01T06:45:17.965Z,2.10
2022-10-01T06:47:46.262Z,2.23
2022-10-01T06:50:15.732Z,2.00
2022-10-01T06:52:51.606Z,2.17
2022-10-01T06:55:20.613Z,1.70
2022-10-01T06:57:50.322Z,1.90
2022-10-01T07:00:18.552Z,2.20
2022-10-01T07:02:46.810Z,1.73
2022-10-01T07:05:17.074Z,2.07
2022-10-01T07:07:45.718Z,1.87
2022-10-01T07:10:13.951Z,2.27
2022-10-01T07:12:42.086Z,2.20
2022-10-01T07:15:10.827Z,1.70
2022-10-01T07:17:45.275Z,1.47
2022-10-01T07:20:14.902Z,1.80
2022-10-01T07:22:44.561Z,1.80
2022-10-01T07:25:12.644Z,1.73
2022-10-01T07:27:41.303Z,1.70
2022-10-01T07:30:10.442Z,1.70
2022-10-01T07:32:38.757Z,1.97
2022-10-01T07:35:09.067Z,2.10
2022-10-01T07:37:37.296Z,2.43
2022-10-01T07:40:08.711Z,1.77
2022-10-01T07:42:38.346Z,2.50
2022-10-01T07:45:07.706Z,2.03
2022-10-01T07:47:35.887Z,2.10
2022-10-01T07:50:04.797Z,2.37
2022-10-01T07:52:33.115Z,2.13
2022-10-01T07:55:01.321Z,2.30
2022-10-01T07:57:31.662Z,2.50
2022-10-01T07:59:59.636Z,2.20
2022-10-01T08:02:27.825Z,2.10
2022-10-01T08:05:13.391Z,2.30
2022-10-01T08:07:41.475Z,2.07
2022-10-01T08:10:10.127Z,2.50
2022-10-01T08:12:40.143Z,2.70
2022-10-01T08:15:10.369Z,2.53
2022-10-01T08:17:38.943Z,2.63
2022-10-01T08:20:09.257Z,2.90
2022-10-01T08:22:41.702Z,2.83
2022-10-01T08:25:11.429Z,3.17
2022-10-01T08:27:40.934Z,3.40
2022-10-01T08:30:10.172Z,3.53
2022-10-01T08:32:38.394Z,3.40
2022-10-01T08:35:07.530Z,4.00
2022-10-01T08:37:35.683Z,3.70
2022-10-01T08:40:03.889Z,4.60
2022-10-01T08:42:54.587Z,4.10
2022-10-01T08:45:27.492Z,4.27
2022-10-01T08:48:04.912Z,4.60
2022-10-01T08:50:41.818Z,4.50
2022-10-01T08:53:16.716Z,4.40
2022-10-01T08:55:45.864Z,4.60
2022-10-01T08:58:24.757Z,5.10
2022-10-01T09:00:52.951Z,5.03
2022-10-01T09:03:21.408Z,4.80
2022-10-01T09:05:58.475Z,5.90
2022-10-01T09:08:44.888Z,5.57
2022-10-01T09:11:25.381Z,5.40
2022-10-01T09:14:15.135Z,5.50
2022-10-01T09:16:51.067Z,6.10
2022-10-01T09:19:35.468Z,6.17
2022-10-01T09:22:11.807Z,7.60
2022-10-01T09:24:45.424Z,6.10
2022-10-01T09:27:16.682Z,6.03
2022-10-01T09:29:52.714Z,6.50
2022-10-01T09:32:25.893Z,6.40
2022-10-01T09:34:57.921Z,6.70
2022-10-01T09:37:36.731Z,6.70
2022-10-01T09:40:17.443Z,7.00
2022-10-01T09:42:47.704Z,7.10
2022-10-01T09:45:18.672Z,7.50
2022-10-01T09:47:51.363Z,8.07
2022-10-01T09:50:26.082Z,7.57
2022-10-01T09:52:56.670Z,7.30
2022-10-01T09:55:31.329Z,8.00
2022-10-01T09:58:02.876Z,8.37
2022-10-01T10:00:34.106Z,7.80
2022-10-01T10:03:02.807Z,8.37
2022-10-01T10:05:41.003Z,7.93
2022-10-01T10:08:14.364Z,8.03
2022-10-01T10:10:52.378Z,8.20
2022-10-01T10:13:31.921Z,8.43
2022-10-01T10:16:07.843Z,9.07
2022-10-01T10:18:38.571Z,8.50
2022-10-01T10:21:09.611Z,8.60
2022-10-01T10:23:48.559Z,8.20
2022-10-01T10:26:21.832Z,7.60
2022-10-01T10:28:50.043Z,7.40
2022-10-01T10:31:24.078Z,7.90
2022-10-01T10:33:55.538Z,7.97
2022-10-01T10:36:29.014Z,9.10
2022-10-01T10:38:58.872Z,8.87
2022-10-01T10:41:29.013Z,9.20
2022-10-01T10:44:00.569Z,9.17
2022-10-01T10:46:33.900Z,9.17
2022-10-01T10:49:10.811Z,9.70
2022-10-01T10:51:48.749Z,9.37
2022-10-01T10:54:23.192Z,9.40
2022-10-01T10:57:00.031Z,9.63
2022-10-01T10:59:28.188Z,9.87
2022-10-01T11:01:57.746Z,9.67
2022-10-01T11:04:33.696Z,9.90
2022-10-01T11:07:02.393Z,9.40
2022-10-01T11:09:43.379Z,10.10
2022-10-01T11:12:20.998Z,10.00
2022-10-01T11:15:00.252Z,10.20
2022-10-01T11:17:49.872Z,9.60
2022-10-01T11:20:34.097Z,9.30
2022-10-01T11:23:22.665Z,9.50
2022-10-01T11:26:03.788Z,9.40
2022-10-01T11:28:46.023Z,9.70
2022-10-01T11:31:27.548Z,9.47
2022-10-01T11:34:07.601Z,9.97
2022-10-01T11:36:44.332Z,10.00
2022-10-01T11:39:16.532Z,9.33
2022-10-01T11:41:47.722Z,9.67
2022-10-01T11:44:22.217Z,9.73
2022-10-01T11:46:59.384Z,9.53
2022-10-01T11:49:53.727Z,9.53
2022-10-01T11:52:34.486Z,9.60
2022-10-01T11:55:46.596Z,10.40
2022-10-01T11:58:36.360Z,10.53
2022-10-01T12:01:10.887Z,10.53
2022-10-01T12:04:02.846Z,9.70
2022-10-01T12:06:38.015Z,10.67
2022-10-01T12:09:14.388Z,10.33
2022-10-01T12:11:49.349Z,11.20
2022-10-01T12:14:20.830Z,10.60
2022-10-01T12:16:53.548Z,10.90
2022-10-01T12:19:25.202Z,10.00
2022-10-01T12:21:58.732Z,10.40
2022-10-01T12:24:31.922Z,9.90
2022-10-01T12:27:10.337Z,10.43
2022-10-01T12:29:47.184Z,10.93
2022-10-01T12:32:24.513Z,10.87
2022-10-01T12:35:02.424Z,10.53
2022-10-01T12:37:44.704Z,10.67
2022-10-01T12:40:28.842Z,10.10
2022-10-01T12:43:26.047Z,10.40
2022-10-01T12:46:02.430Z,11.00
2022-10-01T12:48:41.363Z,11.03
2022-10-01T12:51:32.866Z,10.30
2022-10-01T12:54:13.466Z,10.80
2022-10-01T12:56:46.382Z,10.80
2022-10-01T12:59:41.682Z,10.97
2022-10-01T13:02:28.357Z,11.10
2022-10-01T13:05:20.177Z,11.00
2022-10-01T13:08:07.490Z,11.97
2022-10-01T13:11:00.041Z,11.60
2022-10-01T13:13:33.002Z,11.60
2022-10-01T13:16:08.787Z,12.10
2022-10-01T13:18:51.933Z,12.20
2022-10-01T13:21:32.281Z,11.60
2022-10-01T13:24:04.963Z,11.67
2022-10-01T13:26:42.581Z,11.30
2022-10-01T13:29:22.873Z,11.60
2022-10-01T13:31:58.290Z,11.90
2022-10-01T13:34:35.948Z,11.50
2022-10-01T13:37:18.291Z,12.30
2022-10-01T13:39:47.331Z,12.10
2022-10-01T13:42:26.120Z,11.70
2022-10-01T13:45:01.012Z,11.00
2022-10-01T13:47:29.644Z,10.13
2022-10-01T13:50:03.061Z,9.73
2022-10-01T13:52:33.270Z,9.90
2022-10-01T13:55:03.242Z,10.00
2022-10-01T13:57:35.314Z,10.07
2022-10-01T14:00:22.542Z,9.70
2022-10-01T14:03:06.477Z,9.10
2022-10-01T14:05:39.022Z,10.00
2022-10-01T14:08:17.302Z,10.00
2022-10-01T14:11:08.047Z,9.57
2022-10-01T14:14:05.611Z,9.83
2022-10-01T14:16:38.871Z,9.30
2022-10-01T14:19:07.061Z,9.73
2022-10-01T14:21:45.644Z,8.50
2022-10-01T14:24:24.465Z,8.40
2022-10-01T14:26:58.333Z,8.80
2022-10-01T14:29:41.242Z,8.20
2022-10-01T14:32:23.012Z,8.20
2022-10-01T14:35:14.081Z,7.70
2022-10-01T14:37:42.226Z,8.00
2022-10-01T14:40:18.935Z,7.50
2022-10-01T14:42:58.313Z,7.03
2022-10-01T14:45:27.999Z,7.10
2022-10-01T14:48:03.305Z,7.00
2022-10-01T14:50:34.923Z,6.90
2022-10-01T14:53:04.011Z,7.03
2022-10-01T14:55:32.726Z,7.20
2022-10-01T14:58:00.859Z,6.40
2022-10-01T15:00:32.418Z,6.33
2022-10-01T15:03:12.734Z,6.70
2022-10-01T15:05:40.785Z,6.70
2022-10-01T15:08:14.377Z,6.53
2022-10-01T15:10:46.771Z,7.20
2022-10-01T15:13:21.388Z,7.70
2022-10-01T15:15:51.640Z,7.30
2022-10-01T15:18:20.742Z,6.70
2022-10-01T15:20:57.585Z,6.27
2022-10-01T15:23:27.482Z,6.00
2022-10-01T15:25:57.849Z,7.03
2022-10-01T15:28:31.856Z,6.67
2022-10-01T15:31:03.344Z,6.20
2022-10-01T15:33:33.438Z,6.07
2022-10-01T15:36:04.397Z,6.10
2022-10-01T15:38:33.945Z,6.00
2022-10-01T15:41:29.988Z,6.07
2022-10-01T15:43:53.406Z,5.90
2022-10-01T15:46:35.160Z,5.80
2022-10-01T15:49:14.114Z,5.57
2022-10-01T15:52:10.207Z,5.87
2022-10-01T15:54:40.261Z,6.20
2022-10-01T15:57:10.289Z,6.20
2022-10-01T15:59:41.141Z,6.23
2022-10-01T16:02:18.671Z,6.10
2022-10-01T16:04:47.964Z,6.00
2022-10-01T16:07:22.701Z,6.10
2022-10-01T16:09:56.993Z,5.87
2022-10-01T16:12:28.906Z,6.30
2022-10-01T16:15:02.124Z,6.40
2022-10-01T16:17:34.788Z,6.80
2022-10-01T16:20:35.019Z,6.40
2022-10-01T16:23:42.157Z,6.07
2022-10-01T16:26:38.554Z,6.80
2022-10-01T16:29:27.394Z,6.60
2022-10-01T16:31:57.757Z,5.50
2022-10-01T16:34:29.261Z,6.43
2022-10-01T16:36:57.956Z,6.20
2022-10-01T16:39:26.998Z,5.83
2022-10-01T16:42:18.938Z,5.93
2022-10-01T16:44:45.201Z,5.90
2022-10-01T16:47:14.217Z,5.80
2022-10-01T16:49:43.932Z,6.07
2022-10-01T16:52:17.454Z,5.57
2022-10-01T16:54:47.685Z,5.13
2022-10-01T16:57:18.058Z,5.40
2022-10-01T16:59:48.308Z,5.40
2022-10-01T17:02:17.631Z,4.90
2022-10-01T17:04:48.173Z,5.70
2022-10-01T17:07:17.919Z,5.10
2022-10-01T17:09:47.588Z,4.87
2022-10-01T17:12:17.224Z,5.10
2022-10-01T17:14:46.410Z,5.13
2022-10-01T17:17:15.417Z,5.20
2022-10-01T17:19:44.293Z,5.37
2022-10-01T17:22:15.675Z,5.40
2022-10-01T17:24:43.903Z,5.70
2022-10-01T17:27:12.215Z,5.30
2022-10-01T17:29:40.546Z,5.10
2022-10-01T17:32:09.181Z,4.90
2022-10-01T17:34:38.147Z,4.83
2022-10-01T17:37:06.326Z,5.10
2022-10-01T17:39:36.519Z,5.37
2022-10-01T17:42:05.092Z,4.90
2022-10-01T17:44:33.160Z,4.53
2022-10-01T17:47:01.457Z,4.80
2022-10-01T17:49:29.700Z,5.10
2022-10-01T17:51:57.987Z,5.20
2022-10-01T17:54:26.220Z,5.10
2022-10-01T17:56:56.249Z,5.03
2022-10-01T17:59:25.618Z,4.77
2022-10-01T18:01:54.399Z,4.93
2022-10-01T18:04:23.038Z,5.87
2022-10-01T18:06:52.581Z,6.27
2022-10-01T18:09:21.307Z,5.43
2022-10-01T18:11:49.798Z,5.13
2022-10-01T18:14:19.352Z,5.13
2022-10-01T18:16:47.682Z,5.97
2022-10-01T18:22:11.796Z,5.83
2022-10-01T18:24:42.174Z,7.13
2022-10-01T18:27:10.495Z,5.80
2022-10-01T18:29:40.032Z,6.53
2022-10-01T18:32:15.225Z,6.10
2022-10-01T18:34:48.673Z,6.10
2022-10-01T18:37:25.898Z,5.30
2022-10-01T18:40:01.212Z,5.77
2022-10-01T18:42:35.092Z,5.80
2022-10-01T18:45:14.014Z,5.87
2022-10-01T18:47:54.046Z,6.07
2022-10-01T18:50:37.207Z,6.87
2022-10-01T18:53:31.910Z,7.80
2022-10-01T18:56:17.535Z,6.00
2022-10-01T18:59:21.030Z,6.07
2022-10-01T19:02:01.255Z,6.40
2022-10-01T19:04:51.544Z,5.43
2022-10-01T19:07:33.319Z,6.20
2022-10-01T19:10:09.918Z,6.20
2022-10-01T19:12:50.548Z,7.60
2022-10-01T19:15:29.192Z,6.00
2022-10-01T19:18:12.962Z,6.70
2022-10-01T19:20:59.809Z,6.50
2022-10-01T19:23:53.376Z,6.30
2022-10-01T19:26:27.669Z,5.60
2022-10-01T19:29:12.354Z,6.20
2022-10-01T19:31:47.380Z,5.47
2022-10-01T19:34:23.077Z,6.13
2022-10-01T19:36:56.110Z,6.00
2022-10-01T19:39:28.951Z,6.00
2022-10-01T19:42:00.462Z,6.47
2022-10-01T19:44:33.380Z,6.20
2022-10-01T19:47:15.562Z,6.00
2022-10-01T19:49:48.770Z,6.17
2022-10-01T19:52:18.332Z,6.37
2022-10-01T19:54:49.985Z,6.10
2022-10-01T19:57:24.314Z,6.83
2022-10-01T19:59:55.396Z,7.40
2022-10-01T20:02:33.776Z,8.57
2022-10-01T20:05:06.410Z,8.10
2022-10-01T20:07:42.451Z,7.97
2022-10-01T20:10:21.268Z,6.70
2022-10-01T20:12:57.918Z,7.97
2022-10-01T20:15:38.197Z,7.07
2022-10-01T20:18:19.335Z,7.73
2022-10-01T20:21:01.688Z,8.10
2022-10-01T20:23:44.596Z,7.53
2022-10-01T20:26:20.855Z,7.40
2022-10-01T20:29:13.919Z,7.50
2022-10-01T20:31:52.448Z,7.30
2022-10-01T20:34:32.077Z,7.17
2022-10-01T20:37:16.503Z,6.97
2022-10-01T20:39:49.368Z,6.90
2022-10-01T20:42:24.125Z,6.93
2022-10-01T20:44:54.070Z,7.30
2022-10-01T20:47:28.322Z,7.60
2022-10-01T20:50:09.187Z,7.20
2022-10-01T20:52:48.752Z,8.27
2022-10-01T20:55:19.848Z,7.50
2022-10-01T20:57:51.968Z,7.30
2022-10-01T21:00:24.288Z,8.90
2022-10-01T21:02:57.540Z,7.90
2022-10-01T21:05:29.747Z,7.73
2022-10-01T21:08:04.310Z,7.30
2022-10-01T21:10:42.442Z,8.03
2022-10-01T21:13:17.338Z,8.70
2022-10-01T21:15:54.910Z,8.30
2022-10-01T21:18:34.542Z,8.13
2022-10-01T21:21:11.148Z,8.57
2022-10-01T21:23:56.685Z,8.67
2022-10-01T21:26:35.606Z,8.70
2022-10-01T21:29:22.107Z,8.90
2022-10-01T21:32:00.291Z,9.20
2022-10-01T21:34:39.085Z,9.20
2022-10-01T21:37:16.732Z,9.40
2022-10-01T21:39:54.357Z,9.60
2022-10-01T21:42:33.125Z,9.90
2022-10-01T21:45:28.653Z,11.30
2022-10-01T21:48:08.484Z,10.10
2022-10-01T21:50:49.967Z,10.23
2022-10-01T21:53:48.564Z,9.70
2022-10-01T21:56:48.274Z,9.80
2022-10-01T21:59:31.531Z,9.83
2022-10-01T22:02:07.177Z,10.73
2022-10-01T22:04:43.153Z,10.83
2022-10-01T22:07:22.788Z,10.70
2022-10-01T22:10:04.075Z,11.00
2022-10-01T22:12:37.233Z,11.37
2022-10-01T22:15:18.468Z,10.73
2022-10-01T22:17:47.744Z,10.83
2022-10-01T22:20:18.074Z,10.70
2022-10-01T22:22:48.287Z,10.93
2022-10-01T22:25:16.431Z,11.67
2022-10-01T22:27:52.530Z,11.10
2022-10-01T22:30:22.904Z,11.13
2022-10-01T22:33:00.142Z,11.60
2022-10-01T22:35:33.478Z,11.40
2022-10-01T22:38:08.618Z,11.97
2022-10-01T22:40:43.655Z,12.90
2022-10-01T22:43:15.123Z,12.27
2022-10-01T22:45:54.139Z,12.07
2022-10-01T22:48:38.846Z,12.77
2022-10-01T22:51:17.281Z,12.57
2022-10-01T22:53:57.329Z,12.90
2022-10-01T22:56:35.121Z,12.40
2022-10-01T22:59:12.176Z,12.53
2022-10-01T23:01:47.823Z,13.43
2022-10-01T23:04:32.960Z,12.83
2022-10-01T23:07:10.056Z,12.20
2022-10-01T23:09:44.477Z,12.93
2022-10-01T23:12:17.821Z,12.40
2022-10-01T23:15:05.353Z,13.23
2022-10-01T23:17:41.617Z,12.47
2022-10-01T23:20:19.028Z,12.43
2022-10-01T23:23:05.903Z,11.97
2022-10-01T23:25:49.091Z,12.53
2022-10-01T23:28:26.919Z,11.70
2022-10-01T23:31:06.224Z,11.97
2022-10-01T23:33:55.826Z,12.10
2022-10-01T23:36:35.334Z,11.90
2022-10-01T23:39:36.373Z,12.07
2022-10-01T23:42:15.699Z,12.33
2022-10-01T23:44:50.065Z,11.80
2022-10-01T23:47:25.085Z,12.47
2022-10-01T23:49:56.191Z,12.30
2022-10-01T23:52:32.748Z,12.17
2022-10-01T23:55:19.835Z,12.80
2022-10-01T23:57:52.462Z,12.33
